Plato — 8PRX — position and weather

sailwx.info

Track history (hours):
 
Tides and Currents Weather Stations Pressure Air Temp Water Temp Dewpoint Dewpoint Depression Visibility Wind Speed Wind Dir Waves Ship Positions

Plato

Last reported at 2016-Jul-26 11:33 UTC. Time now 2016-Jul-26 14:09 UTC.
Position N 53°31' E 008°33'.

Length 89 m; draft 5.1 m.

Type: Cargo ship. MMSI: 314189000.

Date/timePositionNaut miles runAvg speedWind from/ knotsBaromVisibWave heightAir tempDewpointWater temp
2016-Jul-26 11:33N 53°31' E 008°33'8 4.2
2016-Jul-26 09:32N 53°38' E 008°26'22 7.3
2016-Jul-26 06:33N 53°51' E 007°57'18 7.4
2016-Jul-26 04:09N 54°02' E 007°33'4 7.5
2016-Jul-26 03:33N 54°06' E 007°29'8 7.7
2016-Jul-26 02:32N 54°13' E 007°23'232 8.0
2016-Jul-24 21:33N 58°02' E 006°16'8 7.7
2016-Jul-24 20:30N 58°10' E 006°15'8 8.0
2016-Jul-24 19:33N 58°17' E 006°17'3 0.1
2016-Jul-23 06:03N 58°15' E 006°13'14 5.7
2016-Jul-23 03:33N 58°01' E 006°19'8 7.6
2016-Jul-23 02:33N 57°57' E 006°32'9 8.5
2016-Jul-23 01:33N 57°54' E 006°47'  
2016-Jul-20 16:24N 53°49' E 004°58'79 8.5
2016-Jul-20 07:09N 52°33' E 004°25'6 9.6
2016-Jul-20 06:33N 52°28' E 004°31'4 3.6
2016-Jul-20 05:33N 52°28' E 004°37'7 6.9
2016-Jul-20 04:33N 52°25' E 004°47'1 0.5
2016-Jul-20 03:25N 52°24' E 004°47'0 0.0
2016-Jul-20 02:25N 52°24' E 004°47'0 0.0
2016-Jul-20 01:31N 52°24' E 004°47'0 0.0
2016-Jul-20 00:25N 52°24' E 004°47'0 0.0
2016-Jul-19 23:31N 52°24' E 004°47'0 0.0
2016-Jul-19 22:25N 52°24' E 004°47'0 0.0
2016-Jul-19 21:28N 52°24' E 004°47'0 0.0
2016-Jul-19 20:31N 52°24' E 004°47'0 0.0
2016-Jul-19 19:31N 52°24' E 004°47'0 0.0
2016-Jul-19 18:28N 52°24' E 004°47'0 0.0
2016-Jul-19 17:28N 52°24' E 004°47'0 0.0
2016-Jul-19 16:25N 52°24' E 004°47'0 0.0
2016-Jul-19 15:07N 52°24' E 004°47'0 0.0
2016-Jul-19 13:25N 52°24' E 004°47'0 0.0
2016-Jul-19 12:28N 52°24' E 004°47'0 0.0
2016-Jul-19 11:31N 52°24' E 004°47'0 0.0
2016-Jul-19 10:31N 52°24' E 004°47'0 0.0
2016-Jul-19 09:33N 52°24' E 004°47'0 0.0
2016-Jul-19 08:33N 52°24' E 004°47'0 0.0
2016-Jul-19 07:33N 52°24' E 004°47'3 1.1
2016-Jul-19 04:33N 52°26' E 004°43'5 4.7
2016-Jul-19 03:34N 52°28' E 004°35'6 6.2
2016-Jul-19 02:33N 52°28' E 004°25'8 8.1
2016-Jul-19 01:31N 52°21' E 004°18'1110.9
2016-Jul-19 00:31N 52°11' E 004°10'1010.3
2016-Jul-18 23:33N 52°02' E 004°03'10 9.5
2016-Jul-18 22:33N 51°55' E 004°14'3 1.3
2016-Jul-18 20:17N 51°53' E 004°17'0 0.0
2016-Jul-18 19:29N 51°53' E 004°17'0 0.0
2016-Jul-18 08:05N 51°53' E 004°17'0 0.0
2016-Jul-17 18:17N 51°53' E 004°17'3 4.2
2016-Jul-17 17:30N 51°54' E 004°22'4 4.2
2016-Jul-17 16:33N 51°54' E 004°28'0 0.0
2016-Jul-17 15:30N 51°54' E 004°28'0 0.0
2016-Jul-17 14:33N 51°54' E 004°28'0 0.0
2016-Jul-17 13:33N 51°54' E 004°28'0 0.0
2016-Jul-17 12:33N 51°54' E 004°28'0 0.0
2016-Jul-17 11:33N 51°54' E 004°28'0 0.0
2016-Jul-17 10:33N 51°54' E 004°28'0 0.0
2016-Jul-17 09:33N 51°54' E 004°28'0 0.0
2016-Jul-17 08:33N 51°54' E 004°28'0 0.0
2016-Jul-17 07:30N 51°54' E 004°28'0 0.0
2016-Jul-17 06:33N 51°54' E 004°28'0 0.0
2016-Jul-17 04:30N 51°54' E 004°28'0 0.0
2016-Jul-17 03:33N 51°54' E 004°28'0 0.0
2016-Jul-17 02:30N 51°54' E 004°28'0 0.0
2016-Jul-17 01:33N 51°54' E 004°28'0 0.0
2016-Jul-17 00:33N 51°54' E 004°28'0 0.0
2016-Jul-16 23:33N 51°54' E 004°28'0 0.0
2016-Jul-16 22:33N 51°54' E 004°28'0 0.0
2016-Jul-16 21:30N 51°54' E 004°28'0 0.0
2016-Jul-16 20:33N 51°54' E 004°28'0 0.0
2016-Jul-16 19:33N 51°54' E 004°28'0 0.0
2016-Jul-16 18:30N 51°54' E 004°28'0 0.0
2016-Jul-16 17:30N 51°54' E 004°28'0 0.0
2016-Jul-16 16:33N 51°54' E 004°28'0 0.0
2016-Jul-16 15:30N 51°54' E 004°28'0 0.0
2016-Jul-16 14:24N 51°54' E 004°28'0 0.0
2016-Jul-16 13:33N 51°54' E 004°28'0 0.0
2016-Jul-16 12:33N 51°54' E 004°28'  
Track history (hours):
 
Tides and Currents Weather Stations Pressure Air Temp Water Temp Dewpoint Dewpoint Depression Visibility Wind Speed Wind Dir Waves Ship Positions

Plato

Last reported at 2016-Jul-26 11:33 UTC. Time now 2016-Jul-26 14:09 UTC.
Position N 53°31' E 008°33'.

Length 89 m; draft 5.1 m.

Type: Cargo ship. MMSI: 314189000.

Date/timePositionNaut miles runAvg speedWind from/ knotsBaromVisibWave heightAir tempDewpointWater temp
2016-Jul-26 11:33N 53°31' E 008°33'8 4.2
2016-Jul-26 09:32N 53°38' E 008°26'22 7.3
2016-Jul-26 06:33N 53°51' E 007°57'18 7.4
2016-Jul-26 04:09N 54°02' E 007°33'4 7.5
2016-Jul-26 03:33N 54°06' E 007°29'8 7.7
2016-Jul-26 02:32N 54°13' E 007°23'232 8.0
2016-Jul-24 21:33N 58°02' E 006°16'8 7.7
2016-Jul-24 20:30N 58°10' E 006°15'8 8.0
2016-Jul-24 19:33N 58°17' E 006°17'3 0.1
2016-Jul-23 06:03N 58°15' E 006°13'14 5.7
2016-Jul-23 03:33N 58°01' E 006°19'8 7.6
2016-Jul-23 02:33N 57°57' E 006°32'9 8.5
2016-Jul-23 01:33N 57°54' E 006°47'  
2016-Jul-20 16:24N 53°49' E 004°58'79 8.5
2016-Jul-20 07:09N 52°33' E 004°25'6 9.6
2016-Jul-20 06:33N 52°28' E 004°31'4 3.6
2016-Jul-20 05:33N 52°28' E 004°37'7 6.9
2016-Jul-20 04:33N 52°25' E 004°47'1 0.5
2016-Jul-20 03:25N 52°24' E 004°47'0 0.0
2016-Jul-20 02:25N 52°24' E 004°47'0 0.0
2016-Jul-20 01:31N 52°24' E 004°47'0 0.0
2016-Jul-20 00:25N 52°24' E 004°47'0 0.0
2016-Jul-19 23:31N 52°24' E 004°47'0 0.0
2016-Jul-19 22:25N 52°24' E 004°47'0 0.0
2016-Jul-19 21:28N 52°24' E 004°47'0 0.0
2016-Jul-19 20:31N 52°24' E 004°47'0 0.0
2016-Jul-19 19:31N 52°24' E 004°47'0 0.0
2016-Jul-19 18:28N 52°24' E 004°47'0 0.0
2016-Jul-19 17:28N 52°24' E 004°47'0 0.0
2016-Jul-19 16:25N 52°24' E 004°47'0 0.0
2016-Jul-19 15:07N 52°24' E 004°47'0 0.0
2016-Jul-19 13:25N 52°24' E 004°47'0 0.0
2016-Jul-19 12:28N 52°24' E 004°47'0 0.0
2016-Jul-19 11:31N 52°24' E 004°47'0 0.0
2016-Jul-19 10:31N 52°24' E 004°47'0 0.0
2016-Jul-19 09:33N 52°24' E 004°47'0 0.0
2016-Jul-19 08:33N 52°24' E 004°47'0 0.0
2016-Jul-19 07:33N 52°24' E 004°47'3 1.1
2016-Jul-19 04:33N 52°26' E 004°43'5 4.7
2016-Jul-19 03:34N 52°28' E 004°35'6 6.2
2016-Jul-19 02:33N 52°28' E 004°25'8 8.1
2016-Jul-19 01:31N 52°21' E 004°18'1110.9
2016-Jul-19 00:31N 52°11' E 004°10'1010.3
2016-Jul-18 23:33N 52°02' E 004°03'10 9.5
2016-Jul-18 22:33N 51°55' E 004°14'3 1.3
2016-Jul-18 20:17N 51°53' E 004°17'0 0.0
2016-Jul-18 19:29N 51°53' E 004°17'0 0.0
2016-Jul-18 08:05N 51°53' E 004°17'0 0.0
2016-Jul-17 18:17N 51°53' E 004°17'3 4.2
2016-Jul-17 17:30N 51°54' E 004°22'4 4.2
2016-Jul-17 16:33N 51°54' E 004°28'0 0.0
2016-Jul-17 15:30N 51°54' E 004°28'0 0.0
2016-Jul-17 14:33N 51°54' E 004°28'0 0.0
2016-Jul-17 13:33N 51°54' E 004°28'0 0.0
2016-Jul-17 12:33N 51°54' E 004°28'0 0.0
2016-Jul-17 11:33N 51°54' E 004°28'0 0.0
2016-Jul-17 10:33N 51°54' E 004°28'0 0.0
2016-Jul-17 09:33N 51°54' E 004°28'0 0.0
2016-Jul-17 08:33N 51°54' E 004°28'0 0.0
2016-Jul-17 07:30N 51°54' E 004°28'0 0.0
2016-Jul-17 06:33N 51°54' E 004°28'0 0.0
2016-Jul-17 04:30N 51°54' E 004°28'0 0.0
2016-Jul-17 03:33N 51°54' E 004°28'0 0.0
2016-Jul-17 02:30N 51°54' E 004°28'0 0.0
2016-Jul-17 01:33N 51°54' E 004°28'0 0.0
2016-Jul-17 00:33N 51°54' E 004°28'0 0.0
2016-Jul-16 23:33N 51°54' E 004°28'0 0.0
2016-Jul-16 22:33N 51°54' E 004°28'0 0.0
2016-Jul-16 21:30N 51°54' E 004°28'0 0.0
2016-Jul-16 20:33N 51°54' E 004°28'0 0.0
2016-Jul-16 19:33N 51°54' E 004°28'0 0.0
2016-Jul-16 18:30N 51°54' E 004°28'0 0.0
2016-Jul-16 17:30N 51°54' E 004°28'0 0.0
2016-Jul-16 16:33N 51°54' E 004°28'0 0.0
2016-Jul-16 15:30N 51°54' E 004°28'0 0.0
2016-Jul-16 14:24N 51°54' E 004°28'0 0.0
2016-Jul-16 13:33N 51°54' E 004°28'0 0.0
2016-Jul-16 12:33N 51°54' E 004°28'  

Dump ship's entire track history